Ellicott City, MD

4:05 AM EST on February 20, 2017 (GMT -0500)
Taylor Village | | Change Station

Elev 395 ft 39.25 °N, 76.78 °W | Updated 1 minute ago

Clear
Clear
48.2 °F
Feels Like 48 °F
N
0.0
Wind Variable Wind from South
Gusts 0.0 mph

Today
High -- | Low -- °F
--% Chance of Precip.
Yesterday
High -- | Low -- °F
Precip. -- in
Pressure 30.10 in
Visibility 10.0 miles
Clouds Few 25000 ft
Windchill 48 °F
Dew Point 29 °F
Humidity 47%
Rainfall Not available.
Snow Depth Not available.
6:52 AM 5:50 PM
Waning Crescent, 35% visible
METAR KBWI 200854Z 26006KT 10SM FEW250 08/04 A3010 RMK AO2 SLP191 T00830044 53018
Pressure 30.10 in
Visibility 10.0 miles
Clouds Few 25000 ft
Windchill 48 °F
Dew Point 29 °F
Humidity 47%
Rainfall Not available.
Snow Depth Not available.
6:52 AM 5:50 PM
Waning Crescent, 35% visible
METAR KBWI 200854Z 26006KT 10SM FEW250 08/04 A3010 RMK AO2 SLP191 T00830044 53018

Get Your Daily Forecast Email!

Thanks for signing up!

Be on the lookout for a verification email in your inbox.

You'll start receiving the daily forecast at 8 AM.

×

10-Day Weather Forecast

Almanac

Astronomy

Feb. 20, 2017 Rise Set
Actual Time
Civil Twilight
Nautical Twilight
Astronomical Twilight
Moon
Length of Visible Light
Length of Day
Tomorrow will be .
, % of the Moon is Illuminated

Today's Extremes

State Highs State Lows

Community

WunderPhotos

Upload Photos

1,962,540 photos uploaded!

WunderBlog® & News

Nearby

Air Quality

  Air Quality AQ Index Pollutant
Not available.

Snow Depth

Station Depth Elevation

Earthquake Activity

City Distance Mag. Time & Date
Minimum magnitude displayed is 2.5.

Coastal Water Temperatures

Place Temperature

Stations

Nearby Weather Stations

Station Location Temp. Windchill Dew Point Humidity Wind Precip. Elev Updated Type
                   

Watches & Warnings

There are currently no watches in effect.